sensor_id;sensor_type;location;lat;lon;timestamp;P1;durP1;ratioP1;P2;durP2;ratioP2
21438;SDS011;10880;50.302;18.736;2023-11-21T00:02:25;4.47;;;2.27;;
21438;SDS011;10880;50.302;18.736;2023-11-21T00:04:53;3.07;;;2.60;;
21438;SDS011;10880;50.302;18.736;2023-11-21T00:07:23;3.90;;;2.80;;
21438;SDS011;10880;50.302;18.736;2023-11-21T00:09:49;4.83;;;3.27;;
21438;SDS011;10880;50.302;18.736;2023-11-21T00:12:15;4.50;;;3.20;;
21438;SDS011;10880;50.302;18.736;2023-11-21T00:14:43;6.87;;;4.33;;
21438;SDS011;10880;50.302;18.736;2023-11-21T00:17:10;5.53;;;3.93;;
21438;SDS011;10880;50.302;18.736;2023-11-21T00:19:38;5.87;;;4.07;;
21438;SDS011;10880;50.302;18.736;2023-11-21T00:22:05;4.77;;;3.60;;
21438;SDS011;10880;50.302;18.736;2023-11-21T00:24:32;4.67;;;3.27;;
21438;SDS011;10880;50.302;18.736;2023-11-21T00:26:59;4.17;;;3.17;;
21438;SDS011;10880;50.302;18.736;2023-11-21T00:29:25;2.77;;;2.57;;
21438;SDS011;10880;50.302;18.736;2023-11-21T00:31:52;4.10;;;2.90;;
21438;SDS011;10880;50.302;18.736;2023-11-21T00:34:19;4.20;;;3.70;;
21438;SDS011;10880;50.302;18.736;2023-11-21T00:36:47;5.87;;;3.43;;
21438;SDS011;10880;50.302;18.736;2023-11-21T00:39:17;5.63;;;4.30;;
21438;SDS011;10880;50.302;18.736;2023-11-21T00:41:44;5.20;;;3.40;;
21438;SDS011;10880;50.302;18.736;2023-11-21T00:44:11;8.70;;;5.30;;
21438;SDS011;10880;50.302;18.736;2023-11-21T00:46:37;5.50;;;4.37;;
21438;SDS011;10880;50.302;18.736;2023-11-21T00:49:04;5.67;;;4.10;;
21438;SDS011;10880;50.302;18.736;2023-11-21T00:51:30;5.33;;;3.80;;
21438;SDS011;10880;50.302;18.736;2023-11-21T00:53:59;5.27;;;3.70;;
21438;SDS011;10880;50.302;18.736;2023-11-21T00:56:27;5.43;;;4.00;;
21438;SDS011;10880;50.302;18.736;2023-11-21T00:58:54;9.87;;;5.40;;
21438;SDS011;10880;50.302;18.736;2023-11-21T01:01:21;6.63;;;3.97;;
21438;SDS011;10880;50.302;18.736;2023-11-21T01:03:50;6.10;;;4.40;;
21438;SDS011;10880;50.302;18.736;2023-11-21T01:06:18;6.50;;;4.27;;
21438;SDS011;10880;50.302;18.736;2023-11-21T01:08:48;5.50;;;3.60;;
21438;SDS011;10880;50.302;18.736;2023-11-21T01:11:15;3.93;;;3.10;;
21438;SDS011;10880;50.302;18.736;2023-11-21T01:13:42;3.80;;;3.40;;
21438;SDS011;10880;50.302;18.736;2023-11-21T01:16:11;4.73;;;3.60;;
21438;SDS011;10880;50.302;18.736;2023-11-21T01:18:37;4.50;;;3.40;;
21438;SDS011;10880;50.302;18.736;2023-11-21T01:21:05;3.63;;;3.20;;
21438;SDS011;10880;50.302;18.736;2023-11-21T01:23:33;3.10;;;2.80;;
21438;SDS011;10880;50.302;18.736;2023-11-21T01:25:59;3.33;;;2.67;;
21438;SDS011;10880;50.302;18.736;2023-11-21T01:28:26;3.37;;;3.00;;
21438;SDS011;10880;50.302;18.736;2023-11-21T01:30:52;2.70;;;2.50;;
21438;SDS011;10880;50.302;18.736;2023-11-21T01:33:22;4.23;;;2.80;;
21438;SDS011;10880;50.302;18.736;2023-11-21T01:35:51;3.10;;;2.70;;
21438;SDS011;10880;50.302;18.736;2023-11-21T01:38:21;3.47;;;2.53;;
21438;SDS011;10880;50.302;18.736;2023-11-21T01:40:48;3.70;;;2.50;;
21438;SDS011;10880;50.302;18.736;2023-11-21T01:43:14;4.80;;;3.10;;
21438;SDS011;10880;50.302;18.736;2023-11-21T01:45:41;2.90;;;2.60;;
21438;SDS011;10880;50.302;18.736;2023-11-21T01:48:07;4.23;;;3.00;;
21438;SDS011;10880;50.302;18.736;2023-11-21T01:50:34;3.67;;;2.70;;
21438;SDS011;10880;50.302;18.736;2023-11-21T01:53:02;2.97;;;2.63;;
21438;SDS011;10880;50.302;18.736;2023-11-21T01:55:29;2.70;;;2.50;;
21438;SDS011;10880;50.302;18.736;2023-11-21T01:57:56;2.90;;;2.43;;
21438;SDS011;10880;50.302;18.736;2023-11-21T02:00:23;2.93;;;2.30;;
21438;SDS011;10880;50.302;18.736;2023-11-21T02:02:50;2.40;;;2.20;;
21438;SDS011;10880;50.302;18.736;2023-11-21T02:05:17;2.70;;;2.13;;
21438;SDS011;10880;50.302;18.736;2023-11-21T02:07:45;3.13;;;2.60;;
21438;SDS011;10880;50.302;18.736;2023-11-21T02:10:15;2.50;;;2.30;;
21438;SDS011;10880;50.302;18.736;2023-11-21T02:12:42;2.47;;;2.27;;
21438;SDS011;10880;50.302;18.736;2023-11-21T02:15:10;2.53;;;2.33;;
21438;SDS011;10880;50.302;18.736;2023-11-21T02:17:42;2.17;;;2.00;;
21438;SDS011;10880;50.302;18.736;2023-11-21T02:20:32;2.50;;;2.00;;
21438;SDS011;10880;50.302;18.736;2023-11-21T02:23:00;2.60;;;2.40;;
21438;SDS011;10880;50.302;18.736;2023-11-21T02:25:28;2.57;;;2.20;;
21438;SDS011;10880;50.302;18.736;2023-11-21T02:28:01;3.53;;;2.33;;
21438;SDS011;10880;50.302;18.736;2023-11-21T02:30:29;2.40;;;2.20;;
21438;SDS011;10880;50.302;18.736;2023-11-21T02:33:00;2.57;;;2.27;;
21438;SDS011;10880;50.302;18.736;2023-11-21T02:35:27;3.10;;;2.00;;
21438;SDS011;10880;50.302;18.736;2023-11-21T02:37:54;2.20;;;2.07;;
21438;SDS011;10880;50.302;18.736;2023-11-21T02:40:22;2.30;;;2.10;;
21438;SDS011;10880;50.302;18.736;2023-11-21T02:42:51;2.00;;;1.87;;
21438;SDS011;10880;50.302;18.736;2023-11-21T02:45:22;2.00;;;1.90;;
21438;SDS011;10880;50.302;18.736;2023-11-21T02:47:50;2.63;;;2.00;;
21438;SDS011;10880;50.302;18.736;2023-11-21T02:50:19;2.30;;;2.10;;
21438;SDS011;10880;50.302;18.736;2023-11-21T02:52:46;2.83;;;2.00;;
21438;SDS011;10880;50.302;18.736;2023-11-21T02:55:13;2.10;;;1.90;;
21438;SDS011;10880;50.302;18.736;2023-11-21T02:57:40;2.60;;;2.30;;
21438;SDS011;10880;50.302;18.736;2023-11-21T03:00:08;4.30;;;2.70;;
21438;SDS011;10880;50.302;18.736;2023-11-21T03:02:35;2.30;;;2.10;;
21438;SDS011;10880;50.302;18.736;2023-11-21T03:05:05;3.40;;;2.50;;
21438;SDS011;10880;50.302;18.736;2023-11-21T03:07:32;2.93;;;2.30;;
21438;SDS011;10880;50.302;18.736;2023-11-21T03:09:58;2.77;;;2.00;;
21438;SDS011;10880;50.302;18.736;2023-11-21T03:12:25;1.93;;;1.80;;
21438;SDS011;10880;50.302;18.736;2023-11-21T03:14:51;2.37;;;1.80;;
21438;SDS011;10880;50.302;18.736;2023-11-21T03:17:20;1.97;;;1.87;;
21438;SDS011;10880;50.302;18.736;2023-11-21T03:19:47;2.13;;;1.93;;
21438;SDS011;10880;50.302;18.736;2023-11-21T03:22:14;2.23;;;1.80;;
21438;SDS011;10880;50.302;18.736;2023-11-21T03:24:41;1.80;;;1.70;;
21438;SDS011;10880;50.302;18.736;2023-11-21T03:27:07;1.90;;;1.80;;
21438;SDS011;10880;50.302;18.736;2023-11-21T03:29:34;2.30;;;1.93;;
21438;SDS011;10880;50.302;18.736;2023-11-21T03:32:00;2.93;;;2.17;;
21438;SDS011;10880;50.302;18.736;2023-11-21T03:34:27;2.43;;;2.00;;
21438;SDS011;10880;50.302;18.736;2023-11-21T03:36:54;2.30;;;2.10;;
21438;SDS011;10880;50.302;18.736;2023-11-21T03:39:21;2.40;;;2.20;;
21438;SDS011;10880;50.302;18.736;2023-11-21T03:41:49;3.20;;;2.20;;
21438;SDS011;10880;50.302;18.736;2023-11-21T03:44:17;3.90;;;2.70;;
21438;SDS011;10880;50.302;18.736;2023-11-21T03:46:44;2.43;;;2.03;;
21438;SDS011;10880;50.302;18.736;2023-11-21T03:49:12;3.47;;;2.30;;
21438;SDS011;10880;50.302;18.736;2023-11-21T03:51:39;2.33;;;2.13;;
21438;SDS011;10880;50.302;18.736;2023-11-21T03:54:06;3.93;;;2.43;;
21438;SDS011;10880;50.302;18.736;2023-11-21T03:56:33;2.40;;;2.20;;
21438;SDS011;10880;50.302;18.736;2023-11-21T03:59:00;2.10;;;2.00;;
21438;SDS011;10880;50.302;18.736;2023-11-21T04:01:26;2.20;;;2.00;;
21438;SDS011;10880;50.302;18.736;2023-11-21T04:03:53;2.40;;;2.20;;
21438;SDS011;10880;50.302;18.736;2023-11-21T04:06:19;3.83;;;2.33;;
21438;SDS011;10880;50.302;18.736;2023-11-21T04:08:46;3.00;;;2.70;;
21438;SDS011;10880;50.302;18.736;2023-11-21T04:11:13;3.10;;;2.70;;
21438;SDS011;10880;50.302;18.736;2023-11-21T04:13:40;4.90;;;3.43;;
21438;SDS011;10880;50.302;18.736;2023-11-21T04:16:07;4.70;;;3.20;;
21438;SDS011;10880;50.302;18.736;2023-11-21T04:18:35;3.27;;;2.70;;
21438;SDS011;10880;50.302;18.736;2023-11-21T04:21:03;3.70;;;3.00;;
21438;SDS011;10880;50.302;18.736;2023-11-21T04:23:31;3.90;;;2.90;;
21438;SDS011;10880;50.302;18.736;2023-11-21T04:25:57;4.87;;;3.60;;
21438;SDS011;10880;50.302;18.736;2023-11-21T04:28:27;5.37;;;3.63;;
21438;SDS011;10880;50.302;18.736;2023-11-21T04:30:54;4.70;;;2.90;;
21438;SDS011;10880;50.302;18.736;2023-11-21T04:33:21;3.77;;;2.67;;
21438;SDS011;10880;50.302;18.736;2023-11-21T04:35:48;3.47;;;2.50;;
21438;SDS011;10880;50.302;18.736;2023-11-21T04:38:14;3.57;;;2.60;;
21438;SDS011;10880;50.302;18.736;2023-11-21T04:40:41;2.70;;;2.40;;
21438;SDS011;10880;50.302;18.736;2023-11-21T04:43:08;2.70;;;2.50;;
21438;SDS011;10880;50.302;18.736;2023-11-21T04:45:34;2.90;;;2.50;;
21438;SDS011;10880;50.302;18.736;2023-11-21T04:48:01;2.77;;;2.57;;
21438;SDS011;10880;50.302;18.736;2023-11-21T04:50:27;7.33;;;3.07;;
21438;SDS011;10880;50.302;18.736;2023-11-21T04:52:54;2.53;;;2.33;;
21438;SDS011;10880;50.302;18.736;2023-11-21T04:55:21;4.07;;;3.23;;
21438;SDS011;10880;50.302;18.736;2023-11-21T04:57:47;5.10;;;3.40;;
21438;SDS011;10880;50.302;18.736;2023-11-21T05:00:14;3.10;;;2.80;;
21438;SDS011;10880;50.302;18.736;2023-11-21T05:02:41;3.50;;;3.20;;
21438;SDS011;10880;50.302;18.736;2023-11-21T05:05:10;3.57;;;3.20;;
21438;SDS011;10880;50.302;18.736;2023-11-21T05:07:36;3.20;;;2.90;;
21438;SDS011;10880;50.302;18.736;2023-11-21T05:10:04;3.17;;;2.87;;
21438;SDS011;10880;50.302;18.736;2023-11-21T05:12:34;3.87;;;3.47;;
21438;SDS011;10880;50.302;18.736;2023-11-21T05:15:06;3.30;;;2.97;;
21438;SDS011;10880;50.302;18.736;2023-11-21T05:17:37;3.83;;;2.80;;
21438;SDS011;10880;50.302;18.736;2023-11-21T05:20:07;3.93;;;3.00;;
21438;SDS011;10880;50.302;18.736;2023-11-21T05:22:36;3.37;;;3.07;;
21438;SDS011;10880;50.302;18.736;2023-11-21T05:25:03;3.07;;;2.77;;
21438;SDS011;10880;50.302;18.736;2023-11-21T05:27:29;2.83;;;2.60;;
21438;SDS011;10880;50.302;18.736;2023-11-21T05:29:56;3.40;;;2.97;;
21438;SDS011;10880;50.302;18.736;2023-11-21T05:32:24;3.20;;;2.90;;
21438;SDS011;10880;50.302;18.736;2023-11-21T05:34:51;3.10;;;2.70;;
21438;SDS011;10880;50.302;18.736;2023-11-21T05:37:18;3.70;;;2.87;;
21438;SDS011;10880;50.302;18.736;2023-11-21T05:39:45;3.10;;;2.70;;
21438;SDS011;10880;50.302;18.736;2023-11-21T05:42:12;4.57;;;3.33;;
21438;SDS011;10880;50.302;18.736;2023-11-21T05:44:41;3.97;;;2.80;;
21438;SDS011;10880;50.302;18.736;2023-11-21T05:47:09;3.07;;;2.70;;
21438;SDS011;10880;50.302;18.736;2023-11-21T05:49:36;2.97;;;2.50;;
21438;SDS011;10880;50.302;18.736;2023-11-21T05:52:02;2.70;;;2.50;;
21438;SDS011;10880;50.302;18.736;2023-11-21T05:54:29;3.30;;;2.87;;
21438;SDS011;10880;50.302;18.736;2023-11-21T05:56:56;3.00;;;2.70;;
21438;SDS011;10880;50.302;18.736;2023-11-21T05:59:23;3.43;;;2.60;;
21438;SDS011;10880;50.302;18.736;2023-11-21T06:01:50;4.73;;;3.00;;
21438;SDS011;10880;50.302;18.736;2023-11-21T06:04:18;5.63;;;4.03;;
21438;SDS011;10880;50.302;18.736;2023-11-21T06:06:48;4.53;;;3.40;;
21438;SDS011;10880;50.302;18.736;2023-11-21T06:09:14;5.50;;;3.60;;
21438;SDS011;10880;50.302;18.736;2023-11-21T06:11:41;3.53;;;3.20;;
21438;SDS011;10880;50.302;18.736;2023-11-21T06:14:08;3.73;;;3.10;;
21438;SDS011;10880;50.302;18.736;2023-11-21T06:16:50;4.10;;;3.23;;
21438;SDS011;10880;50.302;18.736;2023-11-21T06:19:18;4.73;;;3.93;;
21438;SDS011;10880;50.302;18.736;2023-11-21T06:21:45;4.87;;;3.73;;
21438;SDS011;10880;50.302;18.736;2023-11-21T06:24:13;6.10;;;4.10;;
21438;SDS011;10880;50.302;18.736;2023-11-21T06:26:41;5.83;;;4.83;;
21438;SDS011;10880;50.302;18.736;2023-11-21T06:29:07;4.77;;;3.40;;
21438;SDS011;10880;50.302;18.736;2023-11-21T06:31:34;3.77;;;3.30;;
21438;SDS011;10880;50.302;18.736;2023-11-21T06:34:00;4.17;;;3.57;;
21438;SDS011;10880;50.302;18.736;2023-11-21T06:36:26;6.23;;;4.37;;
21438;SDS011;10880;50.302;18.736;2023-11-21T06:38:53;5.30;;;3.93;;
21438;SDS011;10880;50.302;18.736;2023-11-21T06:41:19;5.60;;;3.83;;
21438;SDS011;10880;50.302;18.736;2023-11-21T06:43:46;4.20;;;3.47;;
21438;SDS011;10880;50.302;18.736;2023-11-21T06:46:13;3.30;;;2.90;;
21438;SDS011;10880;50.302;18.736;2023-11-21T06:48:42;4.00;;;3.13;;
21438;SDS011;10880;50.302;18.736;2023-11-21T06:51:10;6.17;;;4.13;;
21438;SDS011;10880;50.302;18.736;2023-11-21T06:53:36;6.87;;;4.53;;
21438;SDS011;10880;50.302;18.736;2023-11-21T06:56:15;4.10;;;3.53;;
21438;SDS011;10880;50.302;18.736;2023-11-21T06:58:42;4.50;;;3.73;;
21438;SDS011;10880;50.302;18.736;2023-11-21T07:01:11;4.87;;;3.77;;
21438;SDS011;10880;50.302;18.736;2023-11-21T07:03:39;4.10;;;3.67;;
21438;SDS011;10880;50.302;18.736;2023-11-21T07:06:08;5.13;;;3.60;;
21438;SDS011;10880;50.302;18.736;2023-11-21T07:08:34;4.27;;;3.53;;
21438;SDS011;10880;50.302;18.736;2023-11-21T07:11:04;3.90;;;3.50;;
21438;SDS011;10880;50.302;18.736;2023-11-21T07:13:30;3.70;;;3.30;;
21438;SDS011;10880;50.302;18.736;2023-11-21T07:15:58;4.33;;;3.67;;
21438;SDS011;10880;50.302;18.736;2023-11-21T07:18:25;4.60;;;3.60;;
21438;SDS011;10880;50.302;18.736;2023-11-21T07:20:52;3.80;;;3.50;;
21438;SDS011;10880;50.302;18.736;2023-11-21T07:23:22;3.60;;;3.30;;
21438;SDS011;10880;50.302;18.736;2023-11-21T07:25:49;3.50;;;3.20;;
21438;SDS011;10880;50.302;18.736;2023-11-21T07:28:15;2.83;;;2.57;;
21438;SDS011;10880;50.302;18.736;2023-11-21T07:30:42;5.60;;;4.23;;
21438;SDS011;10880;50.302;18.736;2023-11-21T07:33:09;4.90;;;3.50;;
21438;SDS011;10880;50.302;18.736;2023-11-21T07:35:36;4.40;;;3.53;;
21438;SDS011;10880;50.302;18.736;2023-11-21T07:38:03;3.53;;;3.13;;
21438;SDS011;10880;50.302;18.736;2023-11-21T07:40:29;4.50;;;3.23;;
21438;SDS011;10880;50.302;18.736;2023-11-21T07:42:57;6.70;;;5.20;;
21438;SDS011;10880;50.302;18.736;2023-11-21T07:45:24;7.97;;;5.50;;
21438;SDS011;10880;50.302;18.736;2023-11-21T07:47:53;9.27;;;6.80;;
21438;SDS011;10880;50.302;18.736;2023-11-21T07:50:21;9.63;;;6.37;;
21438;SDS011;10880;50.302;18.736;2023-11-21T07:52:48;6.10;;;5.00;;
21438;SDS011;10880;50.302;18.736;2023-11-21T07:55:16;4.87;;;4.10;;
21438;SDS011;10880;50.302;18.736;2023-11-21T07:57:43;4.83;;;3.77;;
21438;SDS011;10880;50.302;18.736;2023-11-21T08:00:09;4.77;;;3.73;;
21438;SDS011;10880;50.302;18.736;2023-11-21T08:02:40;4.17;;;3.70;;
21438;SDS011;10880;50.302;18.736;2023-11-21T08:05:12;3.70;;;3.20;;
21438;SDS011;10880;50.302;18.736;2023-11-21T08:07:38;4.37;;;3.87;;
21438;SDS011;10880;50.302;18.736;2023-11-21T08:10:23;5.17;;;3.80;;
21438;SDS011;10880;50.302;18.736;2023-11-21T08:12:50;4.27;;;3.50;;
21438;SDS011;10880;50.302;18.736;2023-11-21T08:15:17;4.00;;;3.23;;
21438;SDS011;10880;50.302;18.736;2023-11-21T08:18:02;5.13;;;3.60;;
21438;SDS011;10880;50.302;18.736;2023-11-21T08:20:29;4.00;;;3.40;;
21438;SDS011;10880;50.302;18.736;2023-11-21T08:22:56;6.03;;;4.30;;
21438;SDS011;10880;50.302;18.736;2023-11-21T08:25:23;12.70;;;7.07;;
21438;SDS011;10880;50.302;18.736;2023-11-21T08:27:50;13.20;;;7.63;;
21438;SDS011;10880;50.302;18.736;2023-11-21T08:30:16;10.90;;;6.07;;
21438;SDS011;10880;50.302;18.736;2023-11-21T08:32:44;9.00;;;5.93;;
21438;SDS011;10880;50.302;18.736;2023-11-21T08:35:13;8.83;;;5.17;;
21438;SDS011;10880;50.302;18.736;2023-11-21T08:37:43;4.67;;;4.00;;
21438;SDS011;10880;50.302;18.736;2023-11-21T08:40:10;5.83;;;3.40;;
21438;SDS011;10880;50.302;18.736;2023-11-21T08:42:42;6.70;;;3.80;;
21438;SDS011;10880;50.302;18.736;2023-11-21T08:45:11;4.70;;;3.53;;
21438;SDS011;10880;50.302;18.736;2023-11-21T08:47:39;10.50;;;6.20;;
21438;SDS011;10880;50.302;18.736;2023-11-21T08:50:06;11.97;;;6.23;;
21438;SDS011;10880;50.302;18.736;2023-11-21T08:52:34;6.80;;;4.60;;
21438;SDS011;10880;50.302;18.736;2023-11-21T08:55:00;5.90;;;4.10;;
21438;SDS011;10880;50.302;18.736;2023-11-21T08:57:34;6.27;;;4.30;;
21438;SDS011;10880;50.302;18.736;2023-11-21T09:00:04;5.07;;;3.60;;
21438;SDS011;10880;50.302;18.736;2023-11-21T09:02:36;3.80;;;3.40;;
21438;SDS011;10880;50.302;18.736;2023-11-21T09:05:03;7.23;;;3.77;;
21438;SDS011;10880;50.302;18.736;2023-11-21T09:07:31;5.33;;;3.77;;
21438;SDS011;10880;50.302;18.736;2023-11-21T09:09:57;4.97;;;3.60;;
21438;SDS011;10880;50.302;18.736;2023-11-21T09:12:24;4.80;;;3.60;;
21438;SDS011;10880;50.302;18.736;2023-11-21T09:14:51;4.23;;;3.30;;
21438;SDS011;10880;50.302;18.736;2023-11-21T09:17:17;5.20;;;3.83;;
21438;SDS011;10880;50.302;18.736;2023-11-21T09:19:44;5.33;;;3.77;;
21438;SDS011;10880;50.302;18.736;2023-11-21T09:22:17;3.47;;;2.97;;
21438;SDS011;10880;50.302;18.736;2023-11-21T09:24:44;5.23;;;3.93;;
21438;SDS011;10880;50.302;18.736;2023-11-21T09:27:10;4.00;;;3.60;;
21438;SDS011;10880;50.302;18.736;2023-11-21T09:29:37;5.30;;;3.90;;
21438;SDS011;10880;50.302;18.736;2023-11-21T09:32:05;4.17;;;3.27;;
21438;SDS011;10880;50.302;18.736;2023-11-21T09:34:34;3.50;;;3.13;;
21438;SDS011;10880;50.302;18.736;2023-11-21T09:37:04;2.80;;;2.60;;
21438;SDS011;10880;50.302;18.736;2023-11-21T09:39:33;5.57;;;4.07;;
21438;SDS011;10880;50.302;18.736;2023-11-21T09:47:37;5.60;;;3.17;;
21438;SDS011;10880;50.302;18.736;2023-11-21T09:50:06;5.67;;;3.90;;
21438;SDS011;10880;50.302;18.736;2023-11-21T09:53:11;5.20;;;3.50;;
21438;SDS011;10880;50.302;18.736;2023-11-21T09:55:44;3.33;;;2.70;;
21438;SDS011;10880;50.302;18.736;2023-11-21T09:58:13;3.97;;;2.90;;
21438;SDS011;10880;50.302;18.736;2023-11-21T10:00:41;3.13;;;2.77;;
21438;SDS011;10880;50.302;18.736;2023-11-21T10:03:15;4.53;;;2.93;;
21438;SDS011;10880;50.302;18.736;2023-11-21T10:05:42;3.53;;;2.30;;
21438;SDS011;10880;50.302;18.736;2023-11-21T10:08:11;3.13;;;2.40;;
21438;SDS011;10880;50.302;18.736;2023-11-21T10:10:45;2.30;;;2.10;;
21438;SDS011;10880;50.302;18.736;2023-11-21T10:13:15;2.00;;;1.90;;
21438;SDS011;10880;50.302;18.736;2023-11-21T10:15:43;1.97;;;1.70;;
21438;SDS011;10880;50.302;18.736;2023-11-21T10:18:14;2.00;;;1.80;;
21438;SDS011;10880;50.302;18.736;2023-11-21T10:20:44;1.80;;;1.70;;
21438;SDS011;10880;50.302;18.736;2023-11-21T10:23:21;2.07;;;1.90;;
21438;SDS011;10880;50.302;18.736;2023-11-21T10:25:50;1.90;;;1.80;;
21438;SDS011;10880;50.302;18.736;2023-11-21T10:28:21;1.80;;;1.70;;
21438;SDS011;10880;50.302;18.736;2023-11-21T10:30:47;1.90;;;1.80;;
21438;SDS011;10880;50.302;18.736;2023-11-21T10:33:15;1.93;;;1.80;;
21438;SDS011;10880;50.302;18.736;2023-11-21T10:35:48;2.77;;;2.03;;
21438;SDS011;10880;50.302;18.736;2023-11-21T10:38:20;2.53;;;2.00;;
21438;SDS011;10880;50.302;18.736;2023-11-21T10:40:50;2.10;;;1.90;;
21438;SDS011;10880;50.302;18.736;2023-11-21T10:43:24;3.60;;;2.37;;
21438;SDS011;10880;50.302;18.736;2023-11-21T10:45:51;2.10;;;1.90;;
21438;SDS011;10880;50.302;18.736;2023-11-21T10:48:20;1.90;;;1.80;;
21438;SDS011;10880;50.302;18.736;2023-11-21T10:50:48;2.10;;;2.00;;
21438;SDS011;10880;50.302;18.736;2023-11-21T10:53:14;1.97;;;1.87;;
21438;SDS011;10880;50.302;18.736;2023-11-21T10:55:41;2.97;;;2.20;;
21438;SDS011;10880;50.302;18.736;2023-11-21T10:58:10;2.00;;;1.80;;
21438;SDS011;10880;50.302;18.736;2023-11-21T11:00:44;5.50;;;1.97;;
21438;SDS011;10880;50.302;18.736;2023-11-21T11:03:12;2.37;;;1.80;;
21438;SDS011;10880;50.302;18.736;2023-11-21T11:05:40;2.77;;;1.90;;
21438;SDS011;10880;50.302;18.736;2023-11-21T11:08:09;1.80;;;1.70;;
21438;SDS011;10880;50.302;18.736;2023-11-21T11:10:38;2.00;;;1.90;;
21438;SDS011;10880;50.302;18.736;2023-11-21T11:13:06;1.97;;;1.70;;
21438;SDS011;10880;50.302;18.736;2023-11-21T11:15:33;5.50;;;3.57;;
21438;SDS011;10880;50.302;18.736;2023-11-21T11:18:00;5.00;;;3.33;;
21438;SDS011;10880;50.302;18.736;2023-11-21T11:20:34;5.50;;;3.30;;
21438;SDS011;10880;50.302;18.736;2023-11-21T11:33:43;3.10;;;2.10;;
21438;SDS011;10880;50.302;18.736;2023-11-21T11:36:41;2.40;;;2.20;;
21438;SDS011;10880;50.302;18.736;2023-11-21T11:39:30;2.20;;;2.00;;
21438;SDS011;10880;50.302;18.736;2023-11-21T11:42:05;1.70;;;1.60;;
21438;SDS011;10880;50.302;18.736;2023-11-21T11:47:16;2.40;;;1.90;;
21438;SDS011;10880;50.302;18.736;2023-11-21T11:49:54;1.90;;;1.80;;
21438;SDS011;10880;50.302;18.736;2023-11-21T11:52:36;2.60;;;1.93;;
21438;SDS011;10880;50.302;18.736;2023-11-21T11:55:08;2.10;;;1.90;;
21438;SDS011;10880;50.302;18.736;2023-11-21T11:57:37;3.30;;;2.17;;
21438;SDS011;10880;50.302;18.736;2023-11-21T12:00:36;2.20;;;2.00;;
21438;SDS011;10880;50.302;18.736;2023-11-21T12:03:04;2.00;;;1.90;;
21438;SDS011;10880;50.302;18.736;2023-11-21T12:05:33;4.77;;;2.60;;
21438;SDS011;10880;50.302;18.736;2023-11-21T12:08:05;6.27;;;3.53;;
21438;SDS011;10880;50.302;18.736;2023-11-21T12:10:35;10.27;;;4.60;;
21438;SDS011;10880;50.302;18.736;2023-11-21T12:13:09;7.63;;;3.50;;
21438;SDS011;10880;50.302;18.736;2023-11-21T12:15:38;5.50;;;3.37;;
21438;SDS011;10880;50.302;18.736;2023-11-21T12:18:08;5.97;;;3.43;;
21438;SDS011;10880;50.302;18.736;2023-11-21T12:20:35;5.47;;;3.40;;
21438;SDS011;10880;50.302;18.736;2023-11-21T12:23:05;6.27;;;3.20;;
21438;SDS011;10880;50.302;18.736;2023-11-21T12:25:36;4.30;;;2.80;;
21438;SDS011;10880;50.302;18.736;2023-11-21T12:28:06;6.13;;;2.93;;
21438;SDS011;10880;50.302;18.736;2023-11-21T12:30:33;6.23;;;3.60;;
21438;SDS011;10880;50.302;18.736;2023-11-21T12:33:02;9.63;;;4.23;;
21438;SDS011;10880;50.302;18.736;2023-11-21T12:35:34;5.90;;;3.70;;
21438;SDS011;10880;50.302;18.736;2023-11-21T12:38:04;3.30;;;3.00;;
21438;SDS011;10880;50.302;18.736;2023-11-21T12:40:31;3.93;;;2.70;;
21438;SDS011;10880;50.302;18.736;2023-11-21T12:43:00;2.60;;;2.40;;
21438;SDS011;10880;50.302;18.736;2023-11-21T12:45:30;2.87;;;2.30;;
21438;SDS011;10880;50.302;18.736;2023-11-21T12:48:02;2.73;;;2.40;;
21438;SDS011;10880;50.302;18.736;2023-11-21T12:50:34;2.47;;;2.27;;
21438;SDS011;10880;50.302;18.736;2023-11-21T12:55:38;2.27;;;2.07;;
21438;SDS011;10880;50.302;18.736;2023-11-21T12:58:06;2.20;;;2.00;;
21438;SDS011;10880;50.302;18.736;2023-11-21T13:00:39;1.97;;;1.77;;
21438;SDS011;10880;50.302;18.736;2023-11-21T13:03:09;2.13;;;1.90;;
21438;SDS011;10880;50.302;18.736;2023-11-21T13:05:39;5.93;;;3.00;;
21438;SDS011;10880;50.302;18.736;2023-11-21T13:08:11;7.77;;;3.60;;
21438;SDS011;10880;50.302;18.736;2023-11-21T13:10:39;7.70;;;3.53;;
21438;SDS011;10880;50.302;18.736;2023-11-21T13:13:10;9.10;;;4.40;;
21438;SDS011;10880;50.302;18.736;2023-11-21T13:15:55;7.17;;;4.00;;
21438;SDS011;10880;50.302;18.736;2023-11-21T13:18:24;7.07;;;3.50;;
21438;SDS011;10880;50.302;18.736;2023-11-21T13:20:55;5.10;;;3.23;;
21438;SDS011;10880;50.302;18.736;2023-11-21T13:23:24;5.07;;;2.60;;
21438;SDS011;10880;50.302;18.736;2023-11-21T13:25:55;3.20;;;2.17;;
21438;SDS011;10880;50.302;18.736;2023-11-21T13:28:23;2.20;;;2.00;;
21438;SDS011;10880;50.302;18.736;2023-11-21T13:30:57;2.73;;;2.20;;
21438;SDS011;10880;50.302;18.736;2023-11-21T13:33:28;2.13;;;1.93;;
21438;SDS011;10880;50.302;18.736;2023-11-21T13:35:55;2.30;;;2.10;;
21438;SDS011;10880;50.302;18.736;2023-11-21T13:38:22;2.30;;;2.07;;
21438;SDS011;10880;50.302;18.736;2023-11-21T13:40:52;2.20;;;2.00;;
21438;SDS011;10880;50.302;18.736;2023-11-21T13:43:21;3.07;;;2.43;;
21438;SDS011;10880;50.302;18.736;2023-11-21T13:45:51;2.87;;;2.40;;
21438;SDS011;10880;50.302;18.736;2023-11-21T13:48:29;2.20;;;2.00;;
21438;SDS011;10880;50.302;18.736;2023-11-21T13:51:15;5.20;;;3.60;;
21438;SDS011;10880;50.302;18.736;2023-11-21T13:53:47;3.87;;;3.07;;
21438;SDS011;10880;50.302;18.736;2023-11-21T13:56:20;4.50;;;2.60;;
21438;SDS011;10880;50.302;18.736;2023-11-21T13:58:51;3.43;;;2.80;;
21438;SDS011;10880;50.302;18.736;2023-11-21T14:01:18;2.60;;;2.40;;
21438;SDS011;10880;50.302;18.736;2023-11-21T14:04:03;3.50;;;3.20;;
21438;SDS011;10880;50.302;18.736;2023-11-21T14:06:55;3.33;;;2.50;;
21438;SDS011;10880;50.302;18.736;2023-11-21T14:09:27;3.63;;;2.73;;
21438;SDS011;10880;50.302;18.736;2023-11-21T14:12:09;5.20;;;3.67;;
21438;SDS011;10880;50.302;18.736;2023-11-21T14:14:36;5.13;;;3.30;;
21438;SDS011;10880;50.302;18.736;2023-11-21T14:17:02;4.23;;;3.13;;
21438;SDS011;10880;50.302;18.736;2023-11-21T14:19:32;3.50;;;2.60;;
21438;SDS011;10880;50.302;18.736;2023-11-21T14:22:02;3.20;;;2.80;;
21438;SDS011;10880;50.302;18.736;2023-11-21T14:24:29;4.10;;;3.07;;
21438;SDS011;10880;50.302;18.736;2023-11-21T14:26:59;4.80;;;3.20;;
21438;SDS011;10880;50.302;18.736;2023-11-21T14:29:25;4.73;;;3.63;;
21438;SDS011;10880;50.302;18.736;2023-11-21T14:31:53;4.77;;;3.63;;
21438;SDS011;10880;50.302;18.736;2023-11-21T14:34:23;4.00;;;3.47;;
21438;SDS011;10880;50.302;18.736;2023-11-21T14:36:50;5.30;;;3.97;;
21438;SDS011;10880;50.302;18.736;2023-11-21T14:39:17;5.37;;;4.00;;
21438;SDS011;10880;50.302;18.736;2023-11-21T14:41:52;4.37;;;3.20;;
21438;SDS011;10880;50.302;18.736;2023-11-21T14:44:22;3.50;;;3.00;;
21438;SDS011;10880;50.302;18.736;2023-11-21T14:46:54;3.20;;;2.70;;
21438;SDS011;10880;50.302;18.736;2023-11-21T14:49:22;3.67;;;2.97;;
21438;SDS011;10880;50.302;18.736;2023-11-21T14:51:55;3.37;;;2.80;;
21438;SDS011;10880;50.302;18.736;2023-11-21T14:54:49;3.03;;;2.73;;
21438;SDS011;10880;50.302;18.736;2023-11-21T14:57:25;3.50;;;2.80;;
21438;SDS011;10880;50.302;18.736;2023-11-21T14:59:53;2.90;;;2.60;;
21438;SDS011;10880;50.302;18.736;2023-11-21T15:02:23;3.27;;;2.87;;
21438;SDS011;10880;50.302;18.736;2023-11-21T15:05:15;3.27;;;2.97;;
21438;SDS011;10880;50.302;18.736;2023-11-21T15:07:42;4.00;;;3.40;;